sensor_id;sensor_type;location;lat;lon;timestamp;P1;durP1;ratioP1;P2;durP2;ratioP2
55692;SDS011;41590;53.366;5.212;2023-03-04T00:01:37;15.27;;;2.22;;
55692;SDS011;41590;53.366;5.212;2023-03-04T00:04:07;14.77;;;2.13;;
55692;SDS011;41590;53.366;5.212;2023-03-04T00:09:06;15.55;;;1.80;;
55692;SDS011;41590;53.366;5.212;2023-03-04T00:11:33;17.52;;;1.80;;
55692;SDS011;41590;53.366;5.212;2023-03-04T00:14:02;16.05;;;2.22;;
55692;SDS011;41590;53.366;5.212;2023-03-04T00:16:35;20.70;;;2.90;;
55692;SDS011;41590;53.366;5.212;2023-03-04T00:19:01;19.25;;;2.60;;
55692;SDS011;41590;53.366;5.212;2023-03-04T00:21:36;18.95;;;2.65;;
55692;SDS011;41590;53.366;5.212;2023-03-04T00:24:02;23.90;;;2.47;;
55692;SDS011;41590;53.366;5.212;2023-03-04T00:26:28;22.20;;;2.38;;
55692;SDS011;41590;53.366;5.212;2023-03-04T00:28:59;18.42;;;1.98;;
55692;SDS011;41590;53.366;5.212;2023-03-04T00:31:25;16.58;;;2.08;;
55692;SDS011;41590;53.366;5.212;2023-03-04T00:33:51;13.38;;;1.88;;
55692;SDS011;41590;53.366;5.212;2023-03-04T00:38:56;16.00;;;1.90;;
55692;SDS011;41590;53.366;5.212;2023-03-04T00:41:24;16.40;;;1.98;;
55692;SDS011;41590;53.366;5.212;2023-03-04T00:43:56;15.80;;;2.03;;
55692;SDS011;41590;53.366;5.212;2023-03-04T00:46:33;18.50;;;2.33;;
55692;SDS011;41590;53.366;5.212;2023-03-04T00:48:59;13.43;;;1.73;;
55692;SDS011;41590;53.366;5.212;2023-03-04T00:51:30;17.75;;;1.73;;
55692;SDS011;41590;53.366;5.212;2023-03-04T00:56:38;13.27;;;1.98;;
55692;SDS011;41590;53.366;5.212;2023-03-04T00:59:05;10.30;;;1.50;;
55692;SDS011;41590;53.366;5.212;2023-03-04T01:01:44;13.20;;;1.58;;
55692;SDS011;41590;53.366;5.212;2023-03-04T01:04:24;15.30;;;2.00;;
55692;SDS011;41590;53.366;5.212;2023-03-04T01:06:51;13.65;;;2.30;;
55692;SDS011;41590;53.366;5.212;2023-03-04T01:09:17;18.30;;;2.40;;
55692;SDS011;41590;53.366;5.212;2023-03-04T01:11:44;21.25;;;2.63;;
55692;SDS011;41590;53.366;5.212;2023-03-04T01:14:12;15.02;;;1.95;;
55692;SDS011;41590;53.366;5.212;2023-03-04T01:16:38;23.77;;;2.30;;
55692;SDS011;41590;53.366;5.212;2023-03-04T01:19:09;16.02;;;2.50;;
55692;SDS011;41590;53.366;5.212;2023-03-04T01:21:53;16.48;;;2.15;;
55692;SDS011;41590;53.366;5.212;2023-03-04T01:26:55;15.80;;;1.90;;
55692;SDS011;41590;53.366;5.212;2023-03-04T01:29:23;15.57;;;2.03;;
55692;SDS011;41590;53.366;5.212;2023-03-04T01:31:49;20.10;;;2.10;;
55692;SDS011;41590;53.366;5.212;2023-03-04T01:34:18;17.23;;;2.30;;
55692;SDS011;41590;53.366;5.212;2023-03-04T01:36:50;12.40;;;1.58;;
55692;SDS011;41590;53.366;5.212;2023-03-04T01:39:17;15.90;;;1.90;;
55692;SDS011;41590;53.366;5.212;2023-03-04T01:41:44;27.05;;;2.70;;
55692;SDS011;41590;53.366;5.212;2023-03-04T01:44:11;19.05;;;2.50;;
55692;SDS011;41590;53.366;5.212;2023-03-04T01:46:37;18.98;;;2.92;;
55692;SDS011;41590;53.366;5.212;2023-03-04T01:49:08;21.50;;;3.03;;
55692;SDS011;41590;53.366;5.212;2023-03-04T01:51:35;23.88;;;3.47;;
55692;SDS011;41590;53.366;5.212;2023-03-04T01:54:02;22.65;;;2.08;;
55692;SDS011;41590;53.366;5.212;2023-03-04T01:56:33;11.50;;;1.88;;
55692;SDS011;41590;53.366;5.212;2023-03-04T01:59:08;14.47;;;1.20;;
55692;SDS011;41590;53.366;5.212;2023-03-04T02:01:38;15.73;;;1.90;;
55692;SDS011;41590;53.366;5.212;2023-03-04T02:04:11;12.77;;;1.45;;
55692;SDS011;41590;53.366;5.212;2023-03-04T02:06:37;11.85;;;1.40;;
55692;SDS011;41590;53.366;5.212;2023-03-04T02:09:04;15.68;;;2.53;;
55692;SDS011;41590;53.366;5.212;2023-03-04T02:14:01;8.30;;;1.15;;
55692;SDS011;41590;53.366;5.212;2023-03-04T02:19:41;8.13;;;1.17;;
55692;SDS011;41590;53.366;5.212;2023-03-04T02:22:05;5.18;;;1.20;;
55692;SDS011;41590;53.366;5.212;2023-03-04T02:24:48;14.55;;;1.60;;
55692;SDS011;41590;53.366;5.212;2023-03-04T02:27:21;13.52;;;1.48;;
55692;SDS011;41590;53.366;5.212;2023-03-04T02:29:47;10.80;;;1.20;;
55692;SDS011;41590;53.366;5.212;2023-03-04T02:32:13;17.17;;;2.75;;
55692;SDS011;41590;53.366;5.212;2023-03-04T02:34:51;11.98;;;1.48;;
55692;SDS011;41590;53.366;5.212;2023-03-04T02:37:20;7.45;;;1.10;;
55692;SDS011;41590;53.366;5.212;2023-03-04T02:39:48;14.50;;;1.70;;
55692;SDS011;41590;53.366;5.212;2023-03-04T02:42:16;14.38;;;2.13;;
55692;SDS011;41590;53.366;5.212;2023-03-04T02:44:44;10.38;;;1.67;;
55692;SDS011;41590;53.366;5.212;2023-03-04T02:47:26;10.20;;;1.13;;
55692;SDS011;41590;53.366;5.212;2023-03-04T02:52:24;9.00;;;1.25;;
55692;SDS011;41590;53.366;5.212;2023-03-04T02:54:55;10.95;;;1.17;;
55692;SDS011;41590;53.366;5.212;2023-03-04T02:59:51;7.47;;;1.23;;
55692;SDS011;41590;53.366;5.212;2023-03-04T03:02:19;10.20;;;1.05;;
55692;SDS011;41590;53.366;5.212;2023-03-04T03:04:56;10.00;;;1.42;;
55692;SDS011;41590;53.366;5.212;2023-03-04T03:07:25;10.38;;;1.38;;
55692;SDS011;41590;53.366;5.212;2023-03-04T03:09:54;12.18;;;1.50;;
55692;SDS011;41590;53.366;5.212;2023-03-04T03:12:20;15.57;;;1.98;;
55692;SDS011;41590;53.366;5.212;2023-03-04T03:14:51;12.52;;;1.58;;
55692;SDS011;41590;53.366;5.212;2023-03-04T03:17:18;10.35;;;1.17;;
55692;SDS011;41590;53.366;5.212;2023-03-04T03:22:15;17.88;;;1.80;;
55692;SDS011;41590;53.366;5.212;2023-03-04T03:24:41;10.00;;;1.30;;
55692;SDS011;41590;53.366;5.212;2023-03-04T03:27:24;12.10;;;1.20;;
55692;SDS011;41590;53.366;5.212;2023-03-04T03:29:51;8.68;;;1.40;;
55692;SDS011;41590;53.366;5.212;2023-03-04T03:32:17;12.48;;;1.40;;
55692;SDS011;41590;53.366;5.212;2023-03-04T03:34:45;12.10;;;1.30;;
55692;SDS011;41590;53.366;5.212;2023-03-04T03:37:13;8.70;;;1.05;;
55692;SDS011;41590;53.366;5.212;2023-03-04T03:39:41;11.23;;;1.25;;
55692;SDS011;41590;53.366;5.212;2023-03-04T03:42:07;8.70;;;1.50;;
55692;SDS011;41590;53.366;5.212;2023-03-04T03:47:26;8.82;;;1.20;;
55692;SDS011;41590;53.366;5.212;2023-03-04T03:50:04;6.45;;;1.27;;
55692;SDS011;41590;53.366;5.212;2023-03-04T03:52:32;7.97;;;1.80;;
55692;SDS011;41590;53.366;5.212;2023-03-04T03:54:59;7.07;;;1.00;;
55692;SDS011;41590;53.366;5.212;2023-03-04T03:57:28;9.15;;;1.23;;
55692;SDS011;41590;53.366;5.212;2023-03-04T04:00:03;15.55;;;1.70;;
55692;SDS011;41590;53.366;5.212;2023-03-04T04:02:38;16.67;;;2.17;;
55692;SDS011;41590;53.366;5.212;2023-03-04T04:07:35;17.63;;;1.63;;
55692;SDS011;41590;53.366;5.212;2023-03-04T04:10:04;13.23;;;1.55;;
55692;SDS011;41590;53.366;5.212;2023-03-04T04:12:43;16.02;;;2.13;;
55692;SDS011;41590;53.366;5.212;2023-03-04T04:15:12;10.07;;;1.38;;
55692;SDS011;41590;53.366;5.212;2023-03-04T04:20:25;16.38;;;2.05;;
55692;SDS011;41590;53.366;5.212;2023-03-04T04:22:59;10.45;;;1.10;;
55692;SDS011;41590;53.366;5.212;2023-03-04T04:27:57;11.35;;;1.45;;
55692;SDS011;41590;53.366;5.212;2023-03-04T04:30:34;13.25;;;1.30;;
55692;SDS011;41590;53.366;5.212;2023-03-04T04:33:00;8.98;;;1.23;;
55692;SDS011;41590;53.366;5.212;2023-03-04T04:35:32;7.78;;;0.98;;
55692;SDS011;41590;53.366;5.212;2023-03-04T04:38:11;11.10;;;1.45;;
55692;SDS011;41590;53.366;5.212;2023-03-04T04:40:37;7.85;;;1.00;;
55692;SDS011;41590;53.366;5.212;2023-03-04T04:43:03;9.52;;;1.10;;
55692;SDS011;41590;53.366;5.212;2023-03-04T04:45:30;8.68;;;1.50;;
55692;SDS011;41590;53.366;5.212;2023-03-04T04:55:43;12.43;;;1.10;;
55692;SDS011;41590;53.366;5.212;2023-03-04T04:58:10;8.63;;;1.20;;
55692;SDS011;41590;53.366;5.212;2023-03-04T05:00:38;10.57;;;1.17;;
55692;SDS011;41590;53.366;5.212;2023-03-04T05:03:07;6.55;;;1.08;;
55692;SDS011;41590;53.366;5.212;2023-03-04T05:05:33;10.45;;;1.48;;
55692;SDS011;41590;53.366;5.212;2023-03-04T05:10:33;10.40;;;1.30;;
55692;SDS011;41590;53.366;5.212;2023-03-04T05:13:00;21.05;;;1.52;;
55692;SDS011;41590;53.366;5.212;2023-03-04T05:15:37;14.75;;;2.17;;
55692;SDS011;41590;53.366;5.212;2023-03-04T05:18:05;22.17;;;2.50;;
55692;SDS011;41590;53.366;5.212;2023-03-04T05:20:36;16.52;;;1.60;;
55692;SDS011;41590;53.366;5.212;2023-03-04T05:23:02;12.13;;;2.00;;
55692;SDS011;41590;53.366;5.212;2023-03-04T05:25:29;13.75;;;1.50;;
55692;SDS011;41590;53.366;5.212;2023-03-04T05:28:03;18.25;;;2.22;;
55692;SDS011;41590;53.366;5.212;2023-03-04T05:33:02;19.75;;;2.47;;
55692;SDS011;41590;53.366;5.212;2023-03-04T05:35:35;22.70;;;2.30;;
55692;SDS011;41590;53.366;5.212;2023-03-04T05:38:03;13.95;;;1.65;;
55692;SDS011;41590;53.366;5.212;2023-03-04T05:40:34;9.95;;;1.20;;
55692;SDS011;41590;53.366;5.212;2023-03-04T05:43:02;14.85;;;1.92;;
55692;SDS011;41590;53.366;5.212;2023-03-04T05:45:29;11.63;;;1.60;;
55692;SDS011;41590;53.366;5.212;2023-03-04T05:50:32;14.45;;;1.77;;
55692;SDS011;41590;53.366;5.212;2023-03-04T05:52:59;14.68;;;1.52;;
55692;SDS011;41590;53.366;5.212;2023-03-04T05:55:26;13.90;;;2.40;;
55692;SDS011;41590;53.366;5.212;2023-03-04T05:57:54;4.80;;;1.13;;
55692;SDS011;41590;53.366;5.212;2023-03-04T06:00:21;8.10;;;1.58;;
55692;SDS011;41590;53.366;5.212;2023-03-04T06:02:48;15.52;;;1.80;;
55692;SDS011;41590;53.366;5.212;2023-03-04T06:05:20;17.40;;;1.52;;
55692;SDS011;41590;53.366;5.212;2023-03-04T06:07:57;16.35;;;1.70;;
55692;SDS011;41590;53.366;5.212;2023-03-04T06:10:25;13.85;;;2.10;;
55692;SDS011;41590;53.366;5.212;2023-03-04T06:12:53;13.60;;;1.65;;
55692;SDS011;41590;53.366;5.212;2023-03-04T06:15:21;18.33;;;2.53;;
55692;SDS011;41590;53.366;5.212;2023-03-04T06:17:52;10.52;;;1.85;;
55692;SDS011;41590;53.366;5.212;2023-03-04T06:20:19;16.42;;;2.33;;
55692;SDS011;41590;53.366;5.212;2023-03-04T06:22:49;30.52;;;2.22;;
55692;SDS011;41590;53.366;5.212;2023-03-04T06:25:34;15.75;;;1.92;;
55692;SDS011;41590;53.366;5.212;2023-03-04T06:28:04;14.02;;;1.70;;
55692;SDS011;41590;53.366;5.212;2023-03-04T06:30:33;14.23;;;2.25;;
55692;SDS011;41590;53.366;5.212;2023-03-04T06:33:00;19.08;;;1.92;;
55692;SDS011;41590;53.366;5.212;2023-03-04T06:35:27;13.15;;;2.25;;
55692;SDS011;41590;53.366;5.212;2023-03-04T06:37:53;18.55;;;2.53;;
55692;SDS011;41590;53.366;5.212;2023-03-04T06:40:19;12.65;;;2.85;;
55692;SDS011;41590;53.366;5.212;2023-03-04T06:42:50;13.77;;;1.80;;
55692;SDS011;41590;53.366;5.212;2023-03-04T06:45:19;13.85;;;1.77;;
55692;SDS011;41590;53.366;5.212;2023-03-04T06:47:46;14.88;;;1.70;;
55692;SDS011;41590;53.366;5.212;2023-03-04T06:52:43;19.48;;;2.15;;
55692;SDS011;41590;53.366;5.212;2023-03-04T06:55:19;13.88;;;1.35;;
55692;SDS011;41590;53.366;5.212;2023-03-04T06:57:51;15.80;;;1.88;;
55692;SDS011;41590;53.366;5.212;2023-03-04T07:05:31;12.95;;;1.75;;
55692;SDS011;41590;53.366;5.212;2023-03-04T07:08:00;10.38;;;1.38;;
55692;SDS011;41590;53.366;5.212;2023-03-04T07:10:27;17.02;;;1.73;;
55692;SDS011;41590;53.366;5.212;2023-03-04T07:15:23;14.82;;;2.28;;
55692;SDS011;41590;53.366;5.212;2023-03-04T07:17:56;16.85;;;1.95;;
55692;SDS011;41590;53.366;5.212;2023-03-04T07:20:36;18.77;;;2.33;;
55692;SDS011;41590;53.366;5.212;2023-03-04T07:25:48;16.02;;;2.65;;
55692;SDS011;41590;53.366;5.212;2023-03-04T07:36:35;20.33;;;1.98;;
55692;SDS011;41590;53.366;5.212;2023-03-04T07:39:03;19.70;;;2.25;;
55692;SDS011;41590;53.366;5.212;2023-03-04T07:41:37;22.98;;;2.80;;
55692;SDS011;41590;53.366;5.212;2023-03-04T07:44:18;16.00;;;1.60;;
55692;SDS011;41590;53.366;5.212;2023-03-04T07:46:45;18.77;;;1.90;;
55692;SDS011;41590;53.366;5.212;2023-03-04T07:54:26;16.15;;;2.30;;
55692;SDS011;41590;53.366;5.212;2023-03-04T08:02:10;12.93;;;2.05;;
55692;SDS011;41590;53.366;5.212;2023-03-04T08:07:07;13.50;;;1.60;;
55692;SDS011;41590;53.366;5.212;2023-03-04T08:09:34;16.20;;;1.92;;
55692;SDS011;41590;53.366;5.212;2023-03-04T08:12:00;20.50;;;2.55;;
55692;SDS011;41590;53.366;5.212;2023-03-04T08:14:44;15.55;;;1.90;;
55692;SDS011;41590;53.366;5.212;2023-03-04T08:17:11;17.08;;;2.03;;
55692;SDS011;41590;53.366;5.212;2023-03-04T08:19:44;24.30;;;3.22;;
55692;SDS011;41590;53.366;5.212;2023-03-04T08:22:11;20.95;;;2.28;;
55692;SDS011;41590;53.366;5.212;2023-03-04T08:24:38;22.08;;;2.13;;
55692;SDS011;41590;53.366;5.212;2023-03-04T08:27:05;18.35;;;2.47;;
55692;SDS011;41590;53.366;5.212;2023-03-04T08:29:31;28.20;;;2.42;;
55692;SDS011;41590;53.366;5.212;2023-03-04T08:37:00;16.63;;;2.47;;
55692;SDS011;41590;53.366;5.212;2023-03-04T08:39:27;22.58;;;2.67;;
55692;SDS011;41590;53.366;5.212;2023-03-04T08:44:26;19.50;;;2.35;;
55692;SDS011;41590;53.366;5.212;2023-03-04T08:46:58;21.40;;;2.55;;
55692;SDS011;41590;53.366;5.212;2023-03-04T08:49:38;19.85;;;2.85;;
55692;SDS011;41590;53.366;5.212;2023-03-04T08:54:39;28.23;;;4.25;;
55692;SDS011;41590;53.366;5.212;2023-03-04T08:57:08;24.25;;;3.53;;
55692;SDS011;41590;53.366;5.212;2023-03-04T08:59:36;25.55;;;3.72;;
55692;SDS011;41590;53.366;5.212;2023-03-04T09:02:11;19.00;;;3.10;;
55692;SDS011;41590;53.366;5.212;2023-03-04T09:04:45;28.60;;;3.40;;
55692;SDS011;41590;53.366;5.212;2023-03-04T09:07:13;25.35;;;2.90;;
55692;SDS011;41590;53.366;5.212;2023-03-04T09:09:40;26.63;;;3.63;;
55692;SDS011;41590;53.366;5.212;2023-03-04T09:12:12;23.73;;;3.15;;
55692;SDS011;41590;53.366;5.212;2023-03-04T09:14:43;21.27;;;3.15;;
55692;SDS011;41590;53.366;5.212;2023-03-04T09:22:27;19.33;;;3.17;;
55692;SDS011;41590;53.366;5.212;2023-03-04T09:25:01;14.07;;;2.60;;
55692;SDS011;41590;53.366;5.212;2023-03-04T09:27:42;13.80;;;2.40;;
55692;SDS011;41590;53.366;5.212;2023-03-04T09:30:17;17.80;;;3.17;;
55692;SDS011;41590;53.366;5.212;2023-03-04T09:32:46;20.33;;;2.83;;
55692;SDS011;41590;53.366;5.212;2023-03-04T09:38:08;18.77;;;2.97;;
55692;SDS011;41590;53.366;5.212;2023-03-04T09:40:46;19.20;;;2.95;;
55692;SDS011;41590;53.366;5.212;2023-03-04T09:43:29;31.88;;;3.55;;
55692;SDS011;41590;53.366;5.212;2023-03-04T09:48:34;24.42;;;3.20;;
55692;SDS011;41590;53.366;5.212;2023-03-04T09:58:54;16.80;;;2.55;;
55692;SDS011;41590;53.366;5.212;2023-03-04T10:06:46;16.58;;;1.88;;
55692;SDS011;41590;53.366;5.212;2023-03-04T10:12:14;15.57;;;2.22;;
55692;SDS011;41590;53.366;5.212;2023-03-04T10:14:57;11.10;;;1.70;;
55692;SDS011;41590;53.366;5.212;2023-03-04T10:25:30;7.53;;;0.90;;
55692;SDS011;41590;53.366;5.212;2023-03-04T10:36:24;8.68;;;1.17;;
55692;SDS011;41590;53.366;5.212;2023-03-04T10:38:57;9.02;;;0.75;;
55692;SDS011;41590;53.366;5.212;2023-03-04T10:41:25;11.68;;;1.42;;
55692;SDS011;41590;53.366;5.212;2023-03-04T10:52:40;8.73;;;1.20;;
55692;SDS011;41590;53.366;5.212;2023-03-04T11:01:13;12.52;;;1.58;;
55692;SDS011;41590;53.366;5.212;2023-03-04T11:06:22;11.65;;;1.52;;
55692;SDS011;41590;53.366;5.212;2023-03-04T11:08:57;8.60;;;1.52;;
55692;SDS011;41590;53.366;5.212;2023-03-04T11:11:41;13.10;;;1.75;;
55692;SDS011;41590;53.366;5.212;2023-03-04T11:14:27;20.90;;;2.17;;
55692;SDS011;41590;53.366;5.212;2023-03-04T11:20:00;13.55;;;2.20;;
55692;SDS011;41590;53.366;5.212;2023-03-04T11:22:44;16.83;;;2.75;;
55692;SDS011;41590;53.366;5.212;2023-03-04T11:25:32;25.63;;;4.25;;
55692;SDS011;41590;53.366;5.212;2023-03-04T11:28:12;21.60;;;2.83;;
55692;SDS011;41590;53.366;5.212;2023-03-04T11:33:56;11.65;;;2.20;;
55692;SDS011;41590;53.366;5.212;2023-03-04T11:39:38;19.00;;;2.78;;
55692;SDS011;41590;53.366;5.212;2023-03-04T11:44:49;16.47;;;2.57;;
55692;SDS011;41590;53.366;5.212;2023-03-04T11:47:49;22.35;;;2.30;;
55692;SDS011;41590;53.366;5.212;2023-03-04T11:50:13;15.70;;;2.40;;
55692;SDS011;41590;53.366;5.212;2023-03-04T12:03:35;22.10;;;3.42;;
55692;SDS011;41590;53.366;5.212;2023-03-04T12:08:58;20.10;;;3.42;;
55692;SDS011;41590;53.366;5.212;2023-03-04T12:19:18;21.80;;;3.33;;
55692;SDS011;41590;53.366;5.212;2023-03-04T12:24:38;21.80;;;3.40;;
55692;SDS011;41590;53.366;5.212;2023-03-04T12:27:26;19.95;;;3.15;;
55692;SDS011;41590;53.366;5.212;2023-03-04T12:30:01;19.23;;;2.50;;
55692;SDS011;41590;53.366;5.212;2023-03-04T12:32:40;15.18;;;2.65;;
55692;SDS011;41590;53.366;5.212;2023-03-04T12:35:19;13.65;;;2.05;;
55692;SDS011;41590;53.366;5.212;2023-03-04T12:40:45;17.30;;;2.20;;
55692;SDS011;41590;53.366;5.212;2023-03-04T12:51:59;18.65;;;2.85;;
55692;SDS011;41590;53.366;5.212;2023-03-04T12:54:46;22.25;;;3.00;;
55692;SDS011;41590;53.366;5.212;2023-03-04T12:57:17;15.98;;;2.35;;
55692;SDS011;41590;53.366;5.212;2023-03-04T13:00:05;20.45;;;3.20;;
55692;SDS011;41590;53.366;5.212;2023-03-04T13:10:42;17.33;;;3.22;;
55692;SDS011;41590;53.366;5.212;2023-03-04T13:36:02;17.30;;;2.80;;
55692;SDS011;41590;53.366;5.212;2023-03-04T13:43:26;20.52;;;2.83;;
55692;SDS011;41590;53.366;5.212;2023-03-04T13:48:39;18.60;;;2.80;;
55692;SDS011;41590;53.366;5.212;2023-03-04T13:54:14;19.35;;;2.92;;
55692;SDS011;41590;53.366;5.212;2023-03-04T13:56:42;22.05;;;3.63;;
55692;SDS011;41590;53.366;5.212;2023-03-04T14:07:01;18.55;;;3.08;;
55692;SDS011;41590;53.366;5.212;2023-03-04T14:09:37;18.58;;;2.83;;
55692;SDS011;41590;53.366;5.212;2023-03-04T14:17:32;17.35;;;2.40;;
55692;SDS011;41590;53.366;5.212;2023-03-04T14:20:02;13.63;;;2.95;;
55692;SDS011;41590;53.366;5.212;2023-03-04T14:22:38;18.42;;;2.67;;
55692;SDS011;41590;53.366;5.212;2023-03-04T14:27:44;21.42;;;4.57;;
55692;SDS011;41590;53.366;5.212;2023-03-04T14:30:28;21.40;;;2.90;;
55692;SDS011;41590;53.366;5.212;2023-03-04T14:32:57;18.42;;;3.25;;
55692;SDS011;41590;53.366;5.212;2023-03-04T14:35:42;19.52;;;3.75;;
55692;SDS011;41590;53.366;5.212;2023-03-04T14:38:32;24.02;;;3.50;;
55692;SDS011;41590;53.366;5.212;2023-03-04T14:43:35;21.55;;;3.33;;
55692;SDS011;41590;53.366;5.212;2023-03-04T14:46:20;21.92;;;2.50;;
55692;SDS011;41590;53.366;5.212;2023-03-04T14:49:01;24.02;;;3.28;;
55692;SDS011;41590;53.366;5.212;2023-03-04T14:54:40;20.05;;;2.55;;
55692;SDS011;41590;53.366;5.212;2023-03-04T15:00:06;16.00;;;3.05;;
55692;SDS011;41590;53.366;5.212;2023-03-04T15:02:40;16.73;;;2.45;;
55692;SDS011;41590;53.366;5.212;2023-03-04T15:05:17;14.48;;;2.50;;
55692;SDS011;41590;53.366;5.212;2023-03-04T15:10:27;15.80;;;2.97;;
55692;SDS011;41590;53.366;5.212;2023-03-04T15:13:14;15.38;;;2.03;;
55692;SDS011;41590;53.366;5.212;2023-03-04T15:15:49;19.13;;;2.55;;
55692;SDS011;41590;53.366;5.212;2023-03-04T15:21:00;19.73;;;2.92;;
55692;SDS011;41590;53.366;5.212;2023-03-04T15:23:33;14.88;;;2.30;;
55692;SDS011;41590;53.366;5.212;2023-03-04T15:26:02;16.92;;;2.85;;
55692;SDS011;41590;53.366;5.212;2023-03-04T15:28:36;15.02;;;2.75;;
55692;SDS011;41590;53.366;5.212;2023-03-04T15:31:16;18.77;;;2.50;;
55692;SDS011;41590;53.366;5.212;2023-03-04T15:33:45;18.52;;;2.50;;
55692;SDS011;41590;53.366;5.212;2023-03-04T15:36:16;12.60;;;2.40;;
55692;SDS011;41590;53.366;5.212;2023-03-04T15:38:43;18.17;;;2.85;;
55692;SDS011;41590;53.366;5.212;2023-03-04T15:43:40;15.27;;;2.88;;
55692;SDS011;41590;53.366;5.212;2023-03-04T15:46:08;19.45;;;2.53;;
55692;SDS011;41590;53.366;5.212;2023-03-04T15:48:35;16.27;;;2.08;;
55692;SDS011;41590;53.366;5.212;2023-03-04T15:51:05;13.45;;;1.80;;
55692;SDS011;41590;53.366;5.212;2023-03-04T15:53:36;10.13;;;2.00;;
55692;SDS011;41590;53.366;5.212;2023-03-04T15:56:04;11.52;;;1.67;;
55692;SDS011;41590;53.366;5.212;2023-03-04T15:58:30;16.30;;;1.80;;
55692;SDS011;41590;53.366;5.212;2023-03-04T16:01:07;13.05;;;1.90;;
55692;SDS011;41590;53.366;5.212;2023-03-04T16:06:04;17.95;;;2.30;;
55692;SDS011;41590;53.366;5.212;2023-03-04T16:08:34;14.27;;;1.75;;
55692;SDS011;41590;53.366;5.212;2023-03-04T16:11:00;17.92;;;2.17;;
55692;SDS011;41590;53.366;5.212;2023-03-04T16:13:28;13.85;;;2.22;;
55692;SDS011;41590;53.366;5.212;2023-03-04T16:15:57;15.80;;;2.15;;
55692;SDS011;41590;53.366;5.212;2023-03-04T16:18:34;17.60;;;2.13;;
55692;SDS011;41590;53.366;5.212;2023-03-04T16:21:01;26.20;;;2.78;;
55692;SDS011;41590;53.366;5.212;2023-03-04T16:23:28;14.38;;;2.20;;
55692;SDS011;41590;53.366;5.212;2023-03-04T16:28:26;20.92;;;2.83;;
55692;SDS011;41590;53.366;5.212;2023-03-04T16:33:24;17.80;;;2.20;;
55692;SDS011;41590;53.366;5.212;2023-03-04T16:35:50;18.00;;;2.95;;
55692;SDS011;41590;53.366;5.212;2023-03-04T16:40:47;22.98;;;2.95;;
55692;SDS011;41590;53.366;5.212;2023-03-04T16:43:14;13.30;;;2.58;;
55692;SDS011;41590;53.366;5.212;2023-03-04T16:45:44;20.55;;;2.22;;
55692;SDS011;41590;53.366;5.212;2023-03-04T16:48:12;15.40;;;2.05;;
55692;SDS011;41590;53.366;5.212;2023-03-04T16:50:40;11.43;;;1.77;;
55692;SDS011;41590;53.366;5.212;2023-03-04T16:53:16;10.70;;;1.75;;
55692;SDS011;41590;53.366;5.212;2023-03-04T16:55:55;16.27;;;2.58;;
55692;SDS011;41590;53.366;5.212;2023-03-04T16:58:25;12.35;;;2.08;;
55692;SDS011;41590;53.366;5.212;2023-03-04T17:00:51;18.48;;;2.25;;
55692;SDS011;41590;53.366;5.212;2023-03-04T17:03:21;13.20;;;2.13;;
55692;SDS011;41590;53.366;5.212;2023-03-04T17:05:48;11.15;;;1.95;;
55692;SDS011;41590;53.366;5.212;2023-03-04T17:08:14;26.50;;;2.05;;
55692;SDS011;41590;53.366;5.212;2023-03-04T17:10:41;16.13;;;2.47;;
55692;SDS011;41590;53.366;5.212;2023-03-04T17:13:13;11.70;;;2.40;;
55692;SDS011;41590;53.366;5.212;2023-03-04T17:15:42;17.10;;;2.13;;
55692;SDS011;41590;53.366;5.212;2023-03-04T17:18:13;19.33;;;3.08;;
55692;SDS011;41590;53.366;5.212;2023-03-04T17:26:34;16.30;;;2.78;;
55692;SDS011;41590;53.366;5.212;2023-03-04T17:29:10;25.58;;;2.78;;
55692;SDS011;41590;53.366;5.212;2023-03-04T17:31:36;16.92;;;2.83;;
55692;SDS011;41590;53.366;5.212;2023-03-04T17:34:04;17.15;;;2.25;;
55692;SDS011;41590;53.366;5.212;2023-03-04T17:36:40;16.58;;;2.58;;
55692;SDS011;41590;53.366;5.212;2023-03-04T17:39:06;16.48;;;1.75;;
55692;SDS011;41590;53.366;5.212;2023-03-04T17:41:33;13.70;;;1.88;;
55692;SDS011;41590;53.366;5.212;2023-03-04T17:44:04;14.98;;;2.58;;
55692;SDS011;41590;53.366;5.212;2023-03-04T17:49:09;15.70;;;2.40;;
55692;SDS011;41590;53.366;5.212;2023-03-04T17:51:37;14.27;;;1.65;;
55692;SDS011;41590;53.366;5.212;2023-03-04T17:54:07;17.13;;;2.00;;
55692;SDS011;41590;53.366;5.212;2023-03-04T17:56:34;12.35;;;1.98;;
55692;SDS011;41590;53.366;5.212;2023-03-04T17:59:04;17.95;;;1.75;;
55692;SDS011;41590;53.366;5.212;2023-03-04T18:01:31;13.13;;;2.17;;
55692;SDS011;41590;53.366;5.212;2023-03-04T18:04:03;16.17;;;2.50;;
55692;SDS011;41590;53.366;5.212;2023-03-04T18:06:42;16.45;;;1.92;;
55692;SDS011;41590;53.366;5.212;2023-03-04T18:11:50;12.88;;;1.67;;
55692;SDS011;41590;53.366;5.212;2023-03-04T18:14:19;14.13;;;2.05;;
55692;SDS011;41590;53.366;5.212;2023-03-04T18:16:46;11.80;;;2.38;;
55692;SDS011;41590;53.366;5.212;2023-03-04T18:21:48;12.02;;;2.15;;
55692;SDS011;41590;53.366;5.212;2023-03-04T18:24:16;10.88;;;1.63;;
55692;SDS011;41590;53.366;5.212;2023-03-04T18:26:42;17.92;;;2.78;;
55692;SDS011;41590;53.366;5.212;2023-03-04T18:29:10;25.45;;;2.60;;
55692;SDS011;41590;53.366;5.212;2023-03-04T18:31:37;21.83;;;2.17;;
55692;SDS011;41590;53.366;5.212;2023-03-04T18:34:05;30.30;;;2.50;;
55692;SDS011;41590;53.366;5.212;2023-03-04T18:36:31;25.38;;;2.90;;
55692;SDS011;41590;53.366;5.212;2023-03-04T18:38:58;17.45;;;2.17;;
55692;SDS011;41590;53.366;5.212;2023-03-04T18:47:48;22.85;;;2.10;;
55692;SDS011;41590;53.366;5.212;2023-03-04T18:50:16;17.10;;;1.95;;
55692;SDS011;41590;53.366;5.212;2023-03-04T18:52:51;18.63;;;2.40;;
55692;SDS011;41590;53.366;5.212;2023-03-04T18:55:17;19.88;;;3.03;;
55692;SDS011;41590;53.366;5.212;2023-03-04T18:57:53;21.25;;;3.42;;
55692;SDS011;41590;53.366;5.212;2023-03-04T19:00:32;17.42;;;2.70;;
55692;SDS011;41590;53.366;5.212;2023-03-04T19:03:04;16.27;;;2.22;;
55692;SDS011;41590;53.366;5.212;2023-03-04T19:05:34;24.05;;;2.97;;
55692;SDS011;41590;53.366;5.212;2023-03-04T19:08:00;15.27;;;2.10;;
55692;SDS011;41590;53.366;5.212;2023-03-04T19:10:28;13.52;;;1.90;;
55692;SDS011;41590;53.366;5.212;2023-03-04T19:15:24;7.07;;;1.15;;
55692;SDS011;41590;53.366;5.212;2023-03-04T19:17:50;5.28;;;1.40;;
55692;SDS011;41590;53.366;5.212;2023-03-04T19:20:16;13.10;;;1.80;;
55692;SDS011;41590;53.366;5.212;2023-03-04T19:22:43;14.10;;;1.98;;
55692;SDS011;41590;53.366;5.212;2023-03-04T19:27:41;15.20;;;1.77;;
55692;SDS011;41590;53.366;5.212;2023-03-04T19:30:07;20.58;;;2.40;;
55692;SDS011;41590;53.366;5.212;2023-03-04T19:32:38;14.48;;;2.03;;
55692;SDS011;41590;53.366;5.212;2023-03-04T19:35:08;12.98;;;2.03;;
55692;SDS011;41590;53.366;5.212;2023-03-04T19:37:43;10.35;;;2.25;;
55692;SDS011;41590;53.366;5.212;2023-03-04T19:40:26;16.27;;;2.42;;
55692;SDS011;41590;53.366;5.212;2023-03-04T19:48:22;20.73;;;2.00;;
55692;SDS011;41590;53.366;5.212;2023-03-04T19:54:29;18.30;;;2.47;;
55692;SDS011;41590;53.366;5.212;2023-03-04T19:57:00;21.25;;;2.28;;
55692;SDS011;41590;53.366;5.212;2023-03-04T20:02:31;14.57;;;2.75;;
55692;SDS011;41590;53.366;5.212;2023-03-04T20:05:07;10.50;;;1.73;;
55692;SDS011;41590;53.366;5.212;2023-03-04T20:07:35;13.25;;;1.80;;
55692;SDS011;41590;53.366;5.212;2023-03-04T20:16:33;16.42;;;2.00;;
55692;SDS011;41590;53.366;5.212;2023-03-04T20:21:43;13.75;;;1.25;;
55692;SDS011;41590;53.366;5.212;2023-03-04T20:24:13;9.55;;;1.15;;
55692;SDS011;41590;53.366;5.212;2023-03-04T20:26:41;14.68;;;1.75;;
55692;SDS011;41590;53.366;5.212;2023-03-04T20:29:07;7.82;;;1.40;;